Pagrindinis puslapis
METAR-TAF:

METAR-TAF

Oro uostai :

Manta, Ekvadoras

platuma: 00-57S, ilguma: 080-41W, Aukštis: 13 m

Dabartinis oras

Ataskaita buvo paskelbta 1 valandą ir 13 minutes, ne 15:00 UTC
Vėjas 8 kt iš Pietų/Pietvakarių
Temperatūra 24°C
Drėgmė 83%
Slėgis 1016 hPa
Matomumas 10 km arba daugiau
Apsiniaukę ne aukštis 1600 ft

METAR: SEMT 221500Z 20008KT 9999 OVC016 24/21 Q1016 RMK A3001

Laikas: 11:13 (16:13 UTC)

Prognozė

Ataskaita buvo paskelbta 6 valandos ir 48 minutes, ne 09:25 UTC
Prognozė galioja nuo 22 metu 12 UTC su 23 metu 12 UTC
Vėjas 6 kt iš Pietų/Pietvakarių
Matomumas 10 km arba daugiau
Apsiniaukę ne aukštis 2000 ft
Tapsmas
nuo 22 metu 17 UTC su 22 metu 18 UTC
Vėjas 10 kt iš Vakarų
Su prošvaistėmis ne aukštis 2300 ft
Tapsmas
nuo 23 metu 00 UTC su 23 metu 01 UTC
Vėjas 5 kt iš Pietų/Pietvakarių
Tapsmas
nuo 23 metu 05 UTC su 23 metu 06 UTC
Apsiniaukę ne aukštis 1600 ft

TAF: SEMT 220925Z 2212/2312 20006KT 9999 OVC020 BECMG 2217/2218 27010KT BKN023 BECMG 2300/2301 20005KT BECMG 2305/2306 OVC016 TX29/2219Z TN22/2310Z

Orai ataskaitas ir orų prognozės (METAR, TAF).

turimą stotys yra geltonos ir raudonos taškus žemėlapyje.

Perkelti pele per norėdami pamatyti stoties vardą.

Tada spustelėkite, norėdami matyti oro stebėjimo ir prognozės.

Norėdami pakeisti žemėlapį: spustelėkite ant žalios mygtukų su juodo kryžiaus žemyn,; žalią mygtuką su brūkšneliu, jei norite nutolinti; arba žalių rodyklių gretimoms žemėlapius.


METAR-TAF: